sensor_id;sensor_type;location;lat;lon;timestamp;temperature;humidity
23475;DHT22;11910;52.086;21.066;2023-01-30T00:01:42;2.10;99.90
23475;DHT22;11910;52.086;21.066;2023-01-30T00:04:09;2.10;99.90
23475;DHT22;11910;52.086;21.066;2023-01-30T00:06:37;2.10;99.90
23475;DHT22;11910;52.086;21.066;2023-01-30T00:09:03;2.10;99.90
23475;DHT22;11910;52.086;21.066;2023-01-30T00:11:28;2.20;99.90
23475;DHT22;11910;52.086;21.066;2023-01-30T00:13:56;2.10;99.90
23475;DHT22;11910;52.086;21.066;2023-01-30T00:16:22;2.20;99.90
23475;DHT22;11910;52.086;21.066;2023-01-30T00:18:47;2.20;99.90
23475;DHT22;11910;52.086;21.066;2023-01-30T00:21:14;2.20;99.90
23475;DHT22;11910;52.086;21.066;2023-01-30T00:23:40;2.20;99.90
23475;DHT22;11910;52.086;21.066;2023-01-30T00:26:06;2.20;99.90
23475;DHT22;11910;52.086;21.066;2023-01-30T00:28:32;2.20;99.90
23475;DHT22;11910;52.086;21.066;2023-01-30T00:30:58;2.20;99.90
23475;DHT22;11910;52.086;21.066;2023-01-30T00:33:25;2.20;99.90
23475;DHT22;11910;52.086;21.066;2023-01-30T00:35:52;2.20;99.90
23475;DHT22;11910;52.086;21.066;2023-01-30T00:38:18;2.20;99.90
23475;DHT22;11910;52.086;21.066;2023-01-30T00:40:44;2.20;99.90
23475;DHT22;11910;52.086;21.066;2023-01-30T00:43:12;2.20;99.90
23475;DHT22;11910;52.086;21.066;2023-01-30T00:45:57;2.20;99.90
23475;DHT22;11910;52.086;21.066;2023-01-30T00:48:41;2.20;99.90
23475;DHT22;11910;52.086;21.066;2023-01-30T00:51:07;2.20;99.90
23475;DHT22;11910;52.086;21.066;2023-01-30T00:53:32;2.20;99.90
23475;DHT22;11910;52.086;21.066;2023-01-30T00:55:58;2.10;99.90
23475;DHT22;11910;52.086;21.066;2023-01-30T00:58:24;2.10;99.90
23475;DHT22;11910;52.086;21.066;2023-01-30T01:00:51;2.00;99.90
23475;DHT22;11910;52.086;21.066;2023-01-30T01:03:17;2.00;99.90
23475;DHT22;11910;52.086;21.066;2023-01-30T01:05:43;2.00;99.90
23475;DHT22;11910;52.086;21.066;2023-01-30T01:08:10;2.00;99.90
23475;DHT22;11910;52.086;21.066;2023-01-30T01:10:36;2.00;99.90
23475;DHT22;11910;52.086;21.066;2023-01-30T01:13:03;2.00;99.90
23475;DHT22;11910;52.086;21.066;2023-01-30T01:15:30;2.00;99.90
23475;DHT22;11910;52.086;21.066;2023-01-30T01:17:56;2.00;99.90
23475;DHT22;11910;52.086;21.066;2023-01-30T01:20:21;2.00;99.90
23475;DHT22;11910;52.086;21.066;2023-01-30T01:22:51;2.00;99.90
23475;DHT22;11910;52.086;21.066;2023-01-30T01:25:18;2.00;99.90
23475;DHT22;11910;52.086;21.066;2023-01-30T01:27:44;2.00;99.90
23475;DHT22;11910;52.086;21.066;2023-01-30T01:30:10;2.00;99.90
23475;DHT22;11910;52.086;21.066;2023-01-30T01:32:36;2.00;99.90
23475;DHT22;11910;52.086;21.066;2023-01-30T01:35:02;2.00;99.90
23475;DHT22;11910;52.086;21.066;2023-01-30T01:37:28;2.00;99.90
23475;DHT22;11910;52.086;21.066;2023-01-30T01:39:53;2.10;99.90
23475;DHT22;11910;52.086;21.066;2023-01-30T01:42:38;2.10;99.90
23475;DHT22;11910;52.086;21.066;2023-01-30T01:45:17;2.10;99.90
23475;DHT22;11910;52.086;21.066;2023-01-30T01:47:57;2.10;99.90
23475;DHT22;11910;52.086;21.066;2023-01-30T01:50:49;2.10;99.90
23475;DHT22;11910;52.086;21.066;2023-01-30T01:53:18;2.10;99.90
23475;DHT22;11910;52.086;21.066;2023-01-30T01:55:48;2.10;99.90
23475;DHT22;11910;52.086;21.066;2023-01-30T01:58:43;2.10;99.90
23475;DHT22;11910;52.086;21.066;2023-01-30T02:01:10;2.20;99.90
23475;DHT22;11910;52.086;21.066;2023-01-30T02:03:40;2.20;99.90
23475;DHT22;11910;52.086;21.066;2023-01-30T02:06:07;2.20;99.90
23475;DHT22;11910;52.086;21.066;2023-01-30T02:08:39;2.20;99.90
23475;DHT22;11910;52.086;21.066;2023-01-30T02:11:42;2.20;99.90
23475;DHT22;11910;52.086;21.066;2023-01-30T02:14:10;2.20;99.90
23475;DHT22;11910;52.086;21.066;2023-01-30T02:16:36;2.20;99.90
23475;DHT22;11910;52.086;21.066;2023-01-30T02:19:05;2.20;99.90
23475;DHT22;11910;52.086;21.066;2023-01-30T02:22:10;2.20;99.90
23475;DHT22;11910;52.086;21.066;2023-01-30T02:35:34;2.20;99.90
23475;DHT22;11910;52.086;21.066;2023-01-30T02:43:51;2.20;99.90
23475;DHT22;11910;52.086;21.066;2023-01-30T02:46:30;2.10;99.90
23475;DHT22;11910;52.086;21.066;2023-01-30T02:49:10;2.20;99.90
23475;DHT22;11910;52.086;21.066;2023-01-30T02:51:40;2.20;99.90
23475;DHT22;11910;52.086;21.066;2023-01-30T02:54:07;2.10;99.90
23475;DHT22;11910;52.086;21.066;2023-01-30T02:56:49;2.20;99.90
23475;DHT22;11910;52.086;21.066;2023-01-30T02:59:20;2.20;99.90
23475;DHT22;11910;52.086;21.066;2023-01-30T03:04:30;2.10;99.90
23475;DHT22;11910;52.086;21.066;2023-01-30T03:15:48;2.10;99.90
23475;DHT22;11910;52.086;21.066;2023-01-30T03:18:18;2.00;99.90
23475;DHT22;11910;52.086;21.066;2023-01-30T03:20:45;2.00;99.90
23475;DHT22;11910;52.086;21.066;2023-01-30T03:23:11;2.00;99.90
23475;DHT22;11910;52.086;21.066;2023-01-30T03:25:40;2.00;99.90
23475;DHT22;11910;52.086;21.066;2023-01-30T03:28:07;1.90;99.90
23475;DHT22;11910;52.086;21.066;2023-01-30T03:30:33;1.80;99.90
23475;DHT22;11910;52.086;21.066;2023-01-30T03:32:58;1.80;99.90
23475;DHT22;11910;52.086;21.066;2023-01-30T03:35:24;1.70;99.90
23475;DHT22;11910;52.086;21.066;2023-01-30T03:37:50;1.70;99.90
23475;DHT22;11910;52.086;21.066;2023-01-30T03:40:16;1.60;99.90
23475;DHT22;11910;52.086;21.066;2023-01-30T03:42:42;1.60;99.90
23475;DHT22;11910;52.086;21.066;2023-01-30T03:45:08;1.60;99.90
23475;DHT22;11910;52.086;21.066;2023-01-30T03:47:34;1.60;99.90
23475;DHT22;11910;52.086;21.066;2023-01-30T03:50:00;1.60;99.90
23475;DHT22;11910;52.086;21.066;2023-01-30T03:52:25;1.60;99.90
23475;DHT22;11910;52.086;21.066;2023-01-30T03:54:51;1.60;99.90
23475;DHT22;11910;52.086;21.066;2023-01-30T03:57:17;1.60;99.90
23475;DHT22;11910;52.086;21.066;2023-01-30T03:59:42;1.60;99.90
23475;DHT22;11910;52.086;21.066;2023-01-30T04:02:08;1.50;99.90
23475;DHT22;11910;52.086;21.066;2023-01-30T04:04:34;1.50;99.90
23475;DHT22;11910;52.086;21.066;2023-01-30T04:07:00;1.60;99.90
23475;DHT22;11910;52.086;21.066;2023-01-30T04:09:25;1.50;99.90
23475;DHT22;11910;52.086;21.066;2023-01-30T04:11:51;1.60;99.90
23475;DHT22;11910;52.086;21.066;2023-01-30T04:14:17;1.50;99.90
23475;DHT22;11910;52.086;21.066;2023-01-30T04:16:42;1.50;99.90
23475;DHT22;11910;52.086;21.066;2023-01-30T04:19:08;1.50;99.90
23475;DHT22;11910;52.086;21.066;2023-01-30T04:21:34;1.50;99.90
23475;DHT22;11910;52.086;21.066;2023-01-30T04:23:59;1.50;99.90
23475;DHT22;11910;52.086;21.066;2023-01-30T04:26:25;1.50;99.90
23475;DHT22;11910;52.086;21.066;2023-01-30T04:28:50;1.50;99.90
23475;DHT22;11910;52.086;21.066;2023-01-30T04:31:16;1.50;99.90
23475;DHT22;11910;52.086;21.066;2023-01-30T04:33:42;1.50;99.90
23475;DHT22;11910;52.086;21.066;2023-01-30T04:36:09;1.50;99.90
23475;DHT22;11910;52.086;21.066;2023-01-30T04:38:35;1.50;99.90
23475;DHT22;11910;52.086;21.066;2023-01-30T04:41:01;1.50;99.90
23475;DHT22;11910;52.086;21.066;2023-01-30T04:43:28;1.50;99.90
23475;DHT22;11910;52.086;21.066;2023-01-30T04:45:54;1.50;99.90
23475;DHT22;11910;52.086;21.066;2023-01-30T04:48:21;1.50;99.90
23475;DHT22;11910;52.086;21.066;2023-01-30T04:50:49;1.60;99.90
23475;DHT22;11910;52.086;21.066;2023-01-30T04:53:16;1.60;99.90
23475;DHT22;11910;52.086;21.066;2023-01-30T04:55:42;1.60;99.90
23475;DHT22;11910;52.086;21.066;2023-01-30T04:58:07;1.60;99.90
23475;DHT22;11910;52.086;21.066;2023-01-30T05:00:33;1.60;99.90
23475;DHT22;11910;52.086;21.066;2023-01-30T05:02:59;1.60;99.90
23475;DHT22;11910;52.086;21.066;2023-01-30T05:05:25;1.70;99.90
23475;DHT22;11910;52.086;21.066;2023-01-30T05:07:51;1.70;99.90
23475;DHT22;11910;52.086;21.066;2023-01-30T05:10:17;1.70;99.90
23475;DHT22;11910;52.086;21.066;2023-01-30T05:12:44;1.70;99.90
23475;DHT22;11910;52.086;21.066;2023-01-30T05:15:11;1.70;99.90
23475;DHT22;11910;52.086;21.066;2023-01-30T05:17:37;1.60;99.90
23475;DHT22;11910;52.086;21.066;2023-01-30T05:20:07;1.70;99.90
23475;DHT22;11910;52.086;21.066;2023-01-30T05:22:32;1.70;99.90
23475;DHT22;11910;52.086;21.066;2023-01-30T05:24:58;1.70;99.90
23475;DHT22;11910;52.086;21.066;2023-01-30T05:27:24;1.70;99.90
23475;DHT22;11910;52.086;21.066;2023-01-30T05:29:49;1.70;99.90
23475;DHT22;11910;52.086;21.066;2023-01-30T05:32:16;1.60;99.90
23475;DHT22;11910;52.086;21.066;2023-01-30T05:34:42;1.70;99.90
23475;DHT22;11910;52.086;21.066;2023-01-30T05:37:08;1.60;99.90
23475;DHT22;11910;52.086;21.066;2023-01-30T05:39:35;1.70;99.90
23475;DHT22;11910;52.086;21.066;2023-01-30T05:42:01;1.60;99.90
23475;DHT22;11910;52.086;21.066;2023-01-30T05:44:26;1.60;99.90
23475;DHT22;11910;52.086;21.066;2023-01-30T05:46:52;1.60;99.90
23475;DHT22;11910;52.086;21.066;2023-01-30T05:49:17;1.60;99.90
23475;DHT22;11910;52.086;21.066;2023-01-30T05:51:43;1.60;99.90
23475;DHT22;11910;52.086;21.066;2023-01-30T05:54:08;1.60;99.90
23475;DHT22;11910;52.086;21.066;2023-01-30T05:56:34;1.60;99.90
23475;DHT22;11910;52.086;21.066;2023-01-30T05:59:01;1.50;99.90
23475;DHT22;11910;52.086;21.066;2023-01-30T06:01:28;1.50;99.90
23475;DHT22;11910;52.086;21.066;2023-01-30T06:03:54;1.50;99.90
23475;DHT22;11910;52.086;21.066;2023-01-30T06:06:20;1.50;99.90
23475;DHT22;11910;52.086;21.066;2023-01-30T06:08:47;1.50;99.90
23475;DHT22;11910;52.086;21.066;2023-01-30T06:11:17;1.50;99.90
23475;DHT22;11910;52.086;21.066;2023-01-30T06:13:43;1.50;99.90
23475;DHT22;11910;52.086;21.066;2023-01-30T06:16:10;1.50;99.90
23475;DHT22;11910;52.086;21.066;2023-01-30T06:18:37;1.50;99.90
23475;DHT22;11910;52.086;21.066;2023-01-30T06:21:03;1.50;99.90
23475;DHT22;11910;52.086;21.066;2023-01-30T06:23:29;1.50;99.90
23475;DHT22;11910;52.086;21.066;2023-01-30T06:25:54;1.50;99.90
23475;DHT22;11910;52.086;21.066;2023-01-30T06:28:21;1.50;99.90
23475;DHT22;11910;52.086;21.066;2023-01-30T06:30:48;1.50;99.90
23475;DHT22;11910;52.086;21.066;2023-01-30T06:33:13;1.50;99.90
23475;DHT22;11910;52.086;21.066;2023-01-30T06:35:40;1.50;99.90
23475;DHT22;11910;52.086;21.066;2023-01-30T06:38:06;1.50;99.90
23475;DHT22;11910;52.086;21.066;2023-01-30T06:40:36;1.50;99.90
23475;DHT22;11910;52.086;21.066;2023-01-30T06:43:01;1.50;99.90
23475;DHT22;11910;52.086;21.066;2023-01-30T06:45:27;1.50;99.90
23475;DHT22;11910;52.086;21.066;2023-01-30T06:47:54;1.50;99.90
23475;DHT22;11910;52.086;21.066;2023-01-30T06:50:22;1.50;99.90
23475;DHT22;11910;52.086;21.066;2023-01-30T06:52:49;1.50;99.90
23475;DHT22;11910;52.086;21.066;2023-01-30T06:55:18;1.50;99.90
23475;DHT22;11910;52.086;21.066;2023-01-30T06:57:44;1.50;99.90
23475;DHT22;11910;52.086;21.066;2023-01-30T07:00:15;1.50;99.90
23475;DHT22;11910;52.086;21.066;2023-01-30T07:02:42;1.50;99.90
23475;DHT22;11910;52.086;21.066;2023-01-30T07:05:08;1.50;99.90
23475;DHT22;11910;52.086;21.066;2023-01-30T07:07:35;1.50;99.90
23475;DHT22;11910;52.086;21.066;2023-01-30T07:10:00;1.50;99.90
23475;DHT22;11910;52.086;21.066;2023-01-30T07:12:27;1.50;99.90
23475;DHT22;11910;52.086;21.066;2023-01-30T07:14:53;1.50;99.90
23475;DHT22;11910;52.086;21.066;2023-01-30T07:17:22;1.50;99.90
23475;DHT22;11910;52.086;21.066;2023-01-30T07:19:48;1.50;99.90
23475;DHT22;11910;52.086;21.066;2023-01-30T07:22:15;1.40;99.90
23475;DHT22;11910;52.086;21.066;2023-01-30T07:24:41;1.40;99.90
23475;DHT22;11910;52.086;21.066;2023-01-30T07:27:10;1.50;99.90
23475;DHT22;11910;52.086;21.066;2023-01-30T07:29:37;1.50;99.90
23475;DHT22;11910;52.086;21.066;2023-01-30T07:32:04;1.50;99.90
23475;DHT22;11910;52.086;21.066;2023-01-30T07:34:30;1.50;99.90
23475;DHT22;11910;52.086;21.066;2023-01-30T07:36:55;1.50;99.90
23475;DHT22;11910;52.086;21.066;2023-01-30T07:39:21;1.50;99.90
23475;DHT22;11910;52.086;21.066;2023-01-30T07:41:46;1.40;99.90
23475;DHT22;11910;52.086;21.066;2023-01-30T07:44:12;1.30;99.90
23475;DHT22;11910;52.086;21.066;2023-01-30T07:46:38;1.30;99.90
23475;DHT22;11910;52.086;21.066;2023-01-30T07:49:10;1.20;99.90
23475;DHT22;11910;52.086;21.066;2023-01-30T07:51:35;1.10;99.90
23475;DHT22;11910;52.086;21.066;2023-01-30T07:54:01;1.00;99.90
23475;DHT22;11910;52.086;21.066;2023-01-30T07:56:28;1.00;99.90
23475;DHT22;11910;52.086;21.066;2023-01-30T07:58:54;1.00;99.90
23475;DHT22;11910;52.086;21.066;2023-01-30T08:01:20;0.90;99.90
23475;DHT22;11910;52.086;21.066;2023-01-30T08:03:46;0.90;99.90
23475;DHT22;11910;52.086;21.066;2023-01-30T08:06:16;0.90;99.90
23475;DHT22;11910;52.086;21.066;2023-01-30T08:08:43;0.90;99.90
23475;DHT22;11910;52.086;21.066;2023-01-30T08:11:09;0.90;99.90
23475;DHT22;11910;52.086;21.066;2023-01-30T08:13:35;0.90;99.90
23475;DHT22;11910;52.086;21.066;2023-01-30T08:16:01;0.90;99.90
23475;DHT22;11910;52.086;21.066;2023-01-30T08:18:28;0.90;99.90
23475;DHT22;11910;52.086;21.066;2023-01-30T08:21:01;0.80;99.90
23475;DHT22;11910;52.086;21.066;2023-01-30T08:23:27;0.80;99.90
23475;DHT22;11910;52.086;21.066;2023-01-30T08:25:57;0.70;99.90
23475;DHT22;11910;52.086;21.066;2023-01-30T08:28:23;0.70;99.90
23475;DHT22;11910;52.086;21.066;2023-01-30T08:30:49;0.70;99.90
23475;DHT22;11910;52.086;21.066;2023-01-30T08:33:17;0.70;99.90
23475;DHT22;11910;52.086;21.066;2023-01-30T08:35:43;0.60;99.90
23475;DHT22;11910;52.086;21.066;2023-01-30T08:38:08;0.60;99.90
23475;DHT22;11910;52.086;21.066;2023-01-30T08:40:35;0.60;99.90
23475;DHT22;11910;52.086;21.066;2023-01-30T08:43:01;0.60;99.90
23475;DHT22;11910;52.086;21.066;2023-01-30T08:45:27;0.60;99.90
23475;DHT22;11910;52.086;21.066;2023-01-30T08:48:00;0.60;99.90
23475;DHT22;11910;52.086;21.066;2023-01-30T08:50:26;0.60;99.90
23475;DHT22;11910;52.086;21.066;2023-01-30T08:52:52;0.70;99.90
23475;DHT22;11910;52.086;21.066;2023-01-30T08:55:18;0.70;99.90
23475;DHT22;11910;52.086;21.066;2023-01-30T08:57:45;0.70;99.90
23475;DHT22;11910;52.086;21.066;2023-01-30T09:00:11;0.60;99.90
23475;DHT22;11910;52.086;21.066;2023-01-30T09:02:37;0.60;99.90
23475;DHT22;11910;52.086;21.066;2023-01-30T09:05:04;0.60;99.90
23475;DHT22;11910;52.086;21.066;2023-01-30T09:07:30;0.60;99.90
23475;DHT22;11910;52.086;21.066;2023-01-30T09:09:55;0.70;99.90
23475;DHT22;11910;52.086;21.066;2023-01-30T09:12:21;0.70;99.90
23475;DHT22;11910;52.086;21.066;2023-01-30T09:14:46;0.70;99.90
23475;DHT22;11910;52.086;21.066;2023-01-30T09:17:12;0.70;99.90
23475;DHT22;11910;52.086;21.066;2023-01-30T09:19:38;0.70;99.90
23475;DHT22;11910;52.086;21.066;2023-01-30T09:22:04;0.70;99.90
23475;DHT22;11910;52.086;21.066;2023-01-30T09:24:31;0.70;99.90
23475;DHT22;11910;52.086;21.066;2023-01-30T09:26:57;0.80;99.90
23475;DHT22;11910;52.086;21.066;2023-01-30T09:29:27;0.80;99.90
23475;DHT22;11910;52.086;21.066;2023-01-30T09:31:54;0.80;99.90
23475;DHT22;11910;52.086;21.066;2023-01-30T09:34:23;0.70;99.90
23475;DHT22;11910;52.086;21.066;2023-01-30T09:36:57;0.80;99.90
23475;DHT22;11910;52.086;21.066;2023-01-30T09:39:24;0.80;99.90
23475;DHT22;11910;52.086;21.066;2023-01-30T09:41:56;0.80;99.90
23475;DHT22;11910;52.086;21.066;2023-01-30T09:47:08;0.90;99.90
23475;DHT22;11910;52.086;21.066;2023-01-30T09:55:23;0.80;99.90
23475;DHT22;11910;52.086;21.066;2023-01-30T09:57:50;0.90;99.90
23475;DHT22;11910;52.086;21.066;2023-01-30T10:00:23;0.80;99.90
23475;DHT22;11910;52.086;21.066;2023-01-30T10:02:51;0.90;99.90
23475;DHT22;11910;52.086;21.066;2023-01-30T10:05:18;0.90;99.90
23475;DHT22;11910;52.086;21.066;2023-01-30T10:24:08;0.90;99.90
23475;DHT22;11910;52.086;21.066;2023-01-30T10:26:38;0.90;99.90
23475;DHT22;11910;52.086;21.066;2023-01-30T10:32:09;0.90;99.90
23475;DHT22;11910;52.086;21.066;2023-01-30T10:34:54;1.00;99.90
23475;DHT22;11910;52.086;21.066;2023-01-30T10:41:10;1.00;99.90
23475;DHT22;11910;52.086;21.066;2023-01-30T10:43:28;1.10;99.90
23475;DHT22;11910;52.086;21.066;2023-01-30T10:46:15;1.10;99.90
23475;DHT22;11910;52.086;21.066;2023-01-30T10:51:41;1.10;99.90
23475;DHT22;11910;52.086;21.066;2023-01-30T10:54:24;1.10;99.90
23475;DHT22;11910;52.086;21.066;2023-01-30T10:57:10;1.10;99.90
23475;DHT22;11910;52.086;21.066;2023-01-30T10:59:48;1.20;99.90
23475;DHT22;11910;52.086;21.066;2023-01-30T11:07:39;1.20;99.90
23475;DHT22;11910;52.086;21.066;2023-01-30T11:10:24;1.20;99.90
23475;DHT22;11910;52.086;21.066;2023-01-30T11:12:55;1.20;99.90
23475;DHT22;11910;52.086;21.066;2023-01-30T11:15:22;1.20;99.90
23475;DHT22;11910;52.086;21.066;2023-01-30T11:18:03;1.20;99.90
23475;DHT22;11910;52.086;21.066;2023-01-30T11:20:30;1.20;99.90
23475;DHT22;11910;52.086;21.066;2023-01-30T11:23:25;1.20;99.90
23475;DHT22;11910;52.086;21.066;2023-01-30T11:25:54;1.20;99.90
23475;DHT22;11910;52.086;21.066;2023-01-30T11:28:21;1.20;99.90
23475;DHT22;11910;52.086;21.066;2023-01-30T11:30:57;1.30;99.90
23475;DHT22;11910;52.086;21.066;2023-01-30T11:33:35;1.40;99.90
23475;DHT22;11910;52.086;21.066;2023-01-30T11:36:22;1.40;99.90
23475;DHT22;11910;52.086;21.066;2023-01-30T11:39:22;1.40;99.90
23475;DHT22;11910;52.086;21.066;2023-01-30T11:44:34;1.50;99.90
23475;DHT22;11910;52.086;21.066;2023-01-30T11:47:07;1.50;99.90
23475;DHT22;11910;52.086;21.066;2023-01-30T11:49:43;1.60;99.90
23475;DHT22;11910;52.086;21.066;2023-01-30T11:52:11;1.60;99.90
23475;DHT22;11910;52.086;21.066;2023-01-30T11:54:40;1.60;99.90
23475;DHT22;11910;52.086;21.066;2023-01-30T11:57:13;1.60;99.90
23475;DHT22;11910;52.086;21.066;2023-01-30T12:04:44;1.80;99.90
23475;DHT22;11910;52.086;21.066;2023-01-30T12:07:31;1.80;99.90
23475;DHT22;11910;52.086;21.066;2023-01-30T12:09:58;1.70;99.90
23475;DHT22;11910;52.086;21.066;2023-01-30T12:12:33;1.80;99.90
23475;DHT22;11910;52.086;21.066;2023-01-30T12:15:20;1.70;99.90
23475;DHT22;11910;52.086;21.066;2023-01-30T12:23:14;1.70;99.90
23475;DHT22;11910;52.086;21.066;2023-01-30T12:26:03;1.70;99.90
23475;DHT22;11910;52.086;21.066;2023-01-30T12:31:40;1.70;99.90
23475;DHT22;11910;52.086;21.066;2023-01-30T12:34:08;1.80;99.90
23475;DHT22;11910;52.086;21.066;2023-01-30T12:36:57;1.80;99.90
23475;DHT22;11910;52.086;21.066;2023-01-30T12:42:22;1.80;99.90
23475;DHT22;11910;52.086;21.066;2023-01-30T12:48:06;1.90;99.90
23475;DHT22;11910;52.086;21.066;2023-01-30T12:56:16;1.90;99.90
23475;DHT22;11910;52.086;21.066;2023-01-30T12:58:50;1.90;99.90
23475;DHT22;11910;52.086;21.066;2023-01-30T13:02:00;1.90;99.90
23475;DHT22;11910;52.086;21.066;2023-01-30T13:10:06;2.00;99.90
23475;DHT22;11910;52.086;21.066;2023-01-30T13:17:54;2.00;99.90
23475;DHT22;11910;52.086;21.066;2023-01-30T13:26:15;2.00;99.90
23475;DHT22;11910;52.086;21.066;2023-01-30T13:28:48;2.00;99.90
23475;DHT22;11910;52.086;21.066;2023-01-30T13:31:18;2.00;99.90
23475;DHT22;11910;52.086;21.066;2023-01-30T13:33:48;2.10;99.90
23475;DHT22;11910;52.086;21.066;2023-01-30T13:36:27;2.10;99.90
23475;DHT22;11910;52.086;21.066;2023-01-30T13:38:58;2.10;99.90
23475;DHT22;11910;52.086;21.066;2023-01-30T13:41:30;2.10;99.90
23475;DHT22;11910;52.086;21.066;2023-01-30T13:43:58;2.10;99.90
23475;DHT22;11910;52.086;21.066;2023-01-30T13:46:26;2.20;99.90
23475;DHT22;11910;52.086;21.066;2023-01-30T13:49:02;2.20;99.90
23475;DHT22;11910;52.086;21.066;2023-01-30T13:51:53;2.30;99.90
23475;DHT22;11910;52.086;21.066;2023-01-30T13:54:50;2.30;99.90
23475;DHT22;11910;52.086;21.066;2023-01-30T13:57:27;2.30;99.90
23475;DHT22;11910;52.086;21.066;2023-01-30T14:11:28;2.30;99.90
23475;DHT22;11910;52.086;21.066;2023-01-30T14:16:46;2.40;99.90
23475;DHT22;11910;52.086;21.066;2023-01-30T14:32:56;2.50;99.90
23475;DHT22;11910;52.086;21.066;2023-01-30T14:35:24;2.50;99.90
23475;DHT22;11910;52.086;21.066;2023-01-30T14:37:51;2.50;99.90
23475;DHT22;11910;52.086;21.066;2023-01-30T14:40:31;2.50;99.90
23475;DHT22;11910;52.086;21.066;2023-01-30T14:45:44;2.50;99.90
23475;DHT22;11910;52.086;21.066;2023-01-30T14:59:29;2.40;99.90
23475;DHT22;11910;52.086;21.066;2023-01-30T15:02:28;2.50;99.90
23475;DHT22;11910;52.086;21.066;2023-01-30T15:07:36;2.50;99.90
23475;DHT22;11910;52.086;21.066;2023-01-30T15:13:31;2.40;99.90
23475;DHT22;11910;52.086;21.066;2023-01-30T15:21:52;2.40;99.90
23475;DHT22;11910;52.086;21.066;2023-01-30T15:27:10;2.40;99.90
23475;DHT22;11910;52.086;21.066;2023-01-30T15:32:25;2.50;99.90
23475;DHT22;11910;52.086;21.066;2023-01-30T15:34:59;2.50;99.90
23475;DHT22;11910;52.086;21.066;2023-01-30T15:37:54;2.50;99.90
23475;DHT22;11910;52.086;21.066;2023-01-30T15:40:24;2.50;99.90
23475;DHT22;11910;52.086;21.066;2023-01-30T15:45:52;2.50;99.90
23475;DHT22;11910;52.086;21.066;2023-01-30T15:49:21;2.60;99.90
23475;DHT22;11910;52.086;21.066;2023-01-30T15:51:53;2.60;99.90
23475;DHT22;11910;52.086;21.066;2023-01-30T15:54:24;2.60;99.90
23475;DHT22;11910;52.086;21.066;2023-01-30T15:56:59;2.60;99.90
23475;DHT22;11910;52.086;21.066;2023-01-30T15:59:37;2.60;99.90
23475;DHT22;11910;52.086;21.066;2023-01-30T16:02:10;2.60;99.90
23475;DHT22;11910;52.086;21.066;2023-01-30T16:04:37;2.60;99.90
23475;DHT22;11910;52.086;21.066;2023-01-30T16:07:25;2.60;99.90
23475;DHT22;11910;52.086;21.066;2023-01-30T16:09:55;2.60;99.90
23475;DHT22;11910;52.086;21.066;2023-01-30T16:12:28;2.60;99.90
23475;DHT22;11910;52.086;21.066;2023-01-30T16:14:54;2.70;99.90
23475;DHT22;11910;52.086;21.066;2023-01-30T16:17:25;2.70;99.90
23475;DHT22;11910;52.086;21.066;2023-01-30T16:19:51;2.70;99.90
23475;DHT22;11910;52.086;21.066;2023-01-30T16:22:19;2.70;99.90
23475;DHT22;11910;52.086;21.066;2023-01-30T16:24:51;2.80;99.90
23475;DHT22;11910;52.086;21.066;2023-01-30T16:27:37;2.70;99.90
23475;DHT22;11910;52.086;21.066;2023-01-30T16:30:06;2.70;99.90
23475;DHT22;11910;52.086;21.066;2023-01-30T16:32:33;2.80;99.90
23475;DHT22;11910;52.086;21.066;2023-01-30T16:37:51;2.80;99.90
23475;DHT22;11910;52.086;21.066;2023-01-30T16:41:03;2.80;99.90
23475;DHT22;11910;52.086;21.066;2023-01-30T16:43:23;2.80;99.90
23475;DHT22;11910;52.086;21.066;2023-01-30T16:46:01;2.90;99.90
23475;DHT22;11910;52.086;21.066;2023-01-30T16:48:37;2.90;99.90
23475;DHT22;11910;52.086;21.066;2023-01-30T16:51:19;2.90;99.90
23475;DHT22;11910;52.086;21.066;2023-01-30T16:53:58;2.90;99.90
23475;DHT22;11910;52.086;21.066;2023-01-30T16:56:26;2.90;99.90
23475;DHT22;11910;52.086;21.066;2023-01-30T16:58:55;2.90;99.90
23475;DHT22;11910;52.086;21.066;2023-01-30T17:01:33;3.00;99.90
23475;DHT22;11910;52.086;21.066;2023-01-30T17:04:01;3.00;99.90
23475;DHT22;11910;52.086;21.066;2023-01-30T17:06:36;3.00;99.90
23475;DHT22;11910;52.086;21.066;2023-01-30T17:09:03;3.00;99.90
23475;DHT22;11910;52.086;21.066;2023-01-30T17:11:39;3.00;99.90
23475;DHT22;11910;52.086;21.066;2023-01-30T17:14:27;3.00;99.90
23475;DHT22;11910;52.086;21.066;2023-01-30T17:17:01;3.10;99.90
23475;DHT22;11910;52.086;21.066;2023-01-30T17:19:27;3.10;99.90
23475;DHT22;11910;52.086;21.066;2023-01-30T17:21:52;3.10;99.90
23475;DHT22;11910;52.086;21.066;2023-01-30T17:24:20;3.10;99.90
23475;DHT22;11910;52.086;21.066;2023-01-30T17:26:52;3.10;99.90
23475;DHT22;11910;52.086;21.066;2023-01-30T17:29:17;3.10;99.90
23475;DHT22;11910;52.086;21.066;2023-01-30T17:31:48;3.10;99.90
23475;DHT22;11910;52.086;21.066;2023-01-30T17:34:14;3.20;99.90
23475;DHT22;11910;52.086;21.066;2023-01-30T17:36:41;3.20;99.90
23475;DHT22;11910;52.086;21.066;2023-01-30T17:39:13;3.20;99.90
23475;DHT22;11910;52.086;21.066;2023-01-30T17:41:40;3.20;99.90
23475;DHT22;11910;52.086;21.066;2023-01-30T17:44:06;3.20;99.90
23475;DHT22;11910;52.086;21.066;2023-01-30T17:46:38;3.30;99.90
23475;DHT22;11910;52.086;21.066;2023-01-30T17:49:06;3.30;99.90
23475;DHT22;11910;52.086;21.066;2023-01-30T17:51:33;3.30;99.90
23475;DHT22;11910;52.086;21.066;2023-01-30T17:53:59;3.30;99.90
23475;DHT22;11910;52.086;21.066;2023-01-30T17:56:31;3.40;99.90
23475;DHT22;11910;52.086;21.066;2023-01-30T17:58:58;3.30;99.90
23475;DHT22;11910;52.086;21.066;2023-01-30T18:01:23;3.40;99.90
23475;DHT22;11910;52.086;21.066;2023-01-30T18:03:49;3.40;99.90
23475;DHT22;11910;52.086;21.066;2023-01-30T18:06:15;3.40;99.90
23475;DHT22;11910;52.086;21.066;2023-01-30T18:08:41;3.40;99.90
23475;DHT22;11910;52.086;21.066;2023-01-30T18:11:07;3.40;99.90
23475;DHT22;11910;52.086;21.066;2023-01-30T18:13:39;3.40;99.90
23475;DHT22;11910;52.086;21.066;2023-01-30T18:16:33;3.40;99.90
23475;DHT22;11910;52.086;21.066;2023-01-30T18:19:01;3.50;99.90
23475;DHT22;11910;52.086;21.066;2023-01-30T18:21:30;3.50;99.90
23475;DHT22;11910;52.086;21.066;2023-01-30T18:23:57;3.50;99.90
23475;DHT22;11910;52.086;21.066;2023-01-30T18:26:23;3.50;99.90
23475;DHT22;11910;52.086;21.066;2023-01-30T18:28:48;3.50;99.90
23475;DHT22;11910;52.086;21.066;2023-01-30T18:31:15;3.60;99.90
23475;DHT22;11910;52.086;21.066;2023-01-30T18:33:41;3.60;99.90
23475;DHT22;11910;52.086;21.066;2023-01-30T18:36:11;3.60;99.90
23475;DHT22;11910;52.086;21.066;2023-01-30T18:38:36;3.60;99.90
23475;DHT22;11910;52.086;21.066;2023-01-30T18:41:16;3.60;99.90
23475;DHT22;11910;52.086;21.066;2023-01-30T18:43:43;3.70;99.90
23475;DHT22;11910;52.086;21.066;2023-01-30T18:46:14;3.70;99.90